createdAt,value
2023-05-05T04:55:18.273Z,18.45
2023-05-05T05:00:21.902Z,19.10
2023-05-05T05:05:25.401Z,21.92
2023-05-05T05:10:30.421Z,20.58
2023-05-05T05:15:34.589Z,19.60
2023-05-05T05:20:38.071Z,21.10
2023-05-05T05:25:44.055Z,19.30
2023-05-05T05:30:47.536Z,19.75
2023-05-05T05:35:51.055Z,18.55
2023-05-05T05:40:56.168Z,19.77
2023-05-05T05:46:00.071Z,16.63
2023-05-05T05:51:03.551Z,18.75
2023-05-05T05:56:09.882Z,18.38
2023-05-05T06:01:13.762Z,21.45
2023-05-05T06:06:17.206Z,20.25
2023-05-05T06:11:22.253Z,20.65
2023-05-05T06:16:26.135Z,19.83
2023-05-05T06:21:29.726Z,20.27
2023-05-05T06:26:34.797Z,24.25
2023-05-05T06:31:38.304Z,19.85
2023-05-05T06:36:41.932Z,20.60
2023-05-05T06:41:46.807Z,17.95
2023-05-05T06:46:51.334Z,17.83
2023-05-05T06:51:55.103Z,16.48
2023-05-05T06:57:00.130Z,18.67
2023-05-05T07:02:04.077Z,15.15
2023-05-05T07:07:07.545Z,17.85
2023-05-05T07:12:12.306Z,16.05
2023-05-05T07:17:16.350Z,12.27
2023-05-05T07:22:19.809Z,14.32
2023-05-05T07:27:24.871Z,15.20
2023-05-05T07:32:28.440Z,13.48
2023-05-05T07:37:32.284Z,15.90
2023-05-05T07:42:37.547Z,15.43
2023-05-05T07:47:41.704Z,12.38
2023-05-05T07:52:51.772Z,10.32
2023-05-05T07:58:04.728Z,13.93
2023-05-05T08:03:11.330Z,11.32
2023-05-05T08:08:15.806Z,11.57
2023-05-05T08:13:20.755Z,12.57
2023-05-05T08:18:25.098Z,12.73
2023-05-05T08:23:28.594Z,8.57
2023-05-05T08:28:33.384Z,13.40
2023-05-05T08:33:37.064Z,9.07
2023-05-05T08:38:40.660Z,12.27
2023-05-05T08:43:46.976Z,9.70
2023-05-05T08:48:52.927Z,8.02
2023-05-05T08:53:59.463Z,10.93
2023-05-05T08:59:05.050Z,7.93
2023-05-05T09:04:09.797Z,6.32
2023-05-05T09:09:13.322Z,5.95
2023-05-05T09:14:18.082Z,6.22
2023-05-05T09:19:21.516Z,8.45
2023-05-05T09:24:25.596Z,7.82
2023-05-05T09:29:30.799Z,5.57
2023-05-05T09:34:35.012Z,5.40
2023-05-05T09:39:54.094Z,4.95
2023-05-05T09:44:59.996Z,4.55
2023-05-05T09:50:04.235Z,5.05
2023-05-05T09:55:18.090Z,6.03
2023-05-05T10:00:23.159Z,5.10
2023-05-05T10:05:27.140Z,7.45
2023-05-05T10:10:30.736Z,5.80
2023-05-05T10:15:35.730Z,8.07
2023-05-05T10:20:41.637Z,6.38
2023-05-05T10:25:54.020Z,6.97
2023-05-05T10:31:05.743Z,7.32
2023-05-05T10:36:14.015Z,9.63
2023-05-05T10:41:19.579Z,6.20
2023-05-05T10:46:25.601Z,5.40
2023-05-05T10:51:40.448Z,7.32
2023-05-05T10:56:44.803Z,3.70
2023-05-05T11:01:50.814Z,4.78
2023-05-05T11:07:23.504Z,4.18
2023-05-05T11:12:26.971Z,4.63
2023-05-05T11:23:24.656Z,7.65
2023-05-05T11:28:31.082Z,4.78
2023-05-05T11:33:36.905Z,4.63
2023-05-05T11:39:08.585Z,4.57
2023-05-05T11:44:12.872Z,7.43
2023-05-05T11:49:27.702Z,6.20
2023-05-05T11:54:33.237Z,3.63
2023-05-05T11:59:38.301Z,3.67
2023-05-05T12:04:41.808Z,5.18
2023-05-05T12:09:48.065Z,5.60
2023-05-05T12:14:53.108Z,4.50
2023-05-05T12:19:56.825Z,6.60
2023-05-05T12:25:03.957Z,3.35
2023-05-05T12:30:16.891Z,4.00
2023-05-05T12:35:22.041Z,4.18
2023-05-05T12:40:50.213Z,4.50
2023-05-05T12:46:08.934Z,3.38
2023-05-05T12:51:18.255Z,3.67
2023-05-05T12:56:36.823Z,4.40
2023-05-05T13:01:50.482Z,3.10
2023-05-05T13:07:10.845Z,4.13
2023-05-05T13:12:16.493Z,3.17
2023-05-05T13:17:19.873Z,3.40
2023-05-05T13:22:23.285Z,3.88
2023-05-05T13:27:28.076Z,4.75
2023-05-05T13:32:31.492Z,4.78
2023-05-05T13:37:35.177Z,6.78
2023-05-05T13:42:39.960Z,3.28
2023-05-05T13:47:45.123Z,4.13
2023-05-05T13:52:48.923Z,4.82
2023-05-05T13:57:54.233Z,5.80
2023-05-05T14:03:00.396Z,3.78
2023-05-05T14:08:04.067Z,5.60
2023-05-05T14:13:08.829Z,5.43
2023-05-05T14:18:12.361Z,5.18
2023-05-05T14:23:16.010Z,6.18
2023-05-05T14:28:21.294Z,5.95
2023-05-05T14:33:25.030Z,3.95
2023-05-05T14:38:28.590Z,5.97
2023-05-05T14:43:33.400Z,3.85
2023-05-05T14:48:37.698Z,4.88
2023-05-05T14:53:41.192Z,3.88
2023-05-05T14:58:47.683Z,4.35
2023-05-05T15:03:53.945Z,3.22
2023-05-05T15:08:57.734Z,4.97
2023-05-05T15:14:02.551Z,4.45
2023-05-05T15:19:06.098Z,3.67
2023-05-05T15:24:09.660Z,4.28
2023-05-05T15:29:15.044Z,3.17
2023-05-05T15:34:18.502Z,4.35
2023-05-05T15:39:21.970Z,4.75
2023-05-05T15:44:27.109Z,4.03
2023-05-05T15:49:30.641Z,3.55
2023-05-05T15:54:34.153Z,3.47
2023-05-05T15:59:38.998Z,2.85
2023-05-05T16:04:42.507Z,4.75
2023-05-05T16:09:46.051Z,4.95
2023-05-05T16:14:53.290Z,2.72
2023-05-05T16:19:58.781Z,9.13
2023-05-05T16:25:02.208Z,4.65
2023-05-05T16:30:09.180Z,4.55
2023-05-05T16:35:12.935Z,7.13
2023-05-05T16:40:16.368Z,5.53
2023-05-05T16:45:21.155Z,11.57
2023-05-05T16:50:25.003Z,6.68
2023-05-05T16:55:28.579Z,6.35
2023-05-05T17:00:33.426Z,5.85
2023-05-05T17:05:37.332Z,4.82
2023-05-05T17:10:44.209Z,18.42
2023-05-05T17:15:49.092Z,3.92
2023-05-05T17:20:52.960Z,5.05
2023-05-05T17:25:58.749Z,4.30
2023-05-05T17:31:03.772Z,5.22
2023-05-05T17:36:08.028Z,4.80
2023-05-05T17:41:11.486Z,4.00
2023-05-05T17:46:16.318Z,4.25
2023-05-05T17:51:19.765Z,6.13
2023-05-05T17:56:23.396Z,4.68
2023-05-05T18:01:28.555Z,4.75
2023-05-05T18:06:32.215Z,4.43
2023-05-05T18:11:36.009Z,4.65
2023-05-05T18:16:43.861Z,4.57
2023-05-05T18:21:47.486Z,7.35
2023-05-05T18:26:52.021Z,9.07
2023-05-05T18:31:57.824Z,8.50
2023-05-05T18:37:01.367Z,9.32
2023-05-05T18:42:05.346Z,7.28
2023-05-05T18:47:10.275Z,7.72
2023-05-05T18:52:13.816Z,8.85
2023-05-05T18:57:17.252Z,12.90
2023-05-05T19:02:22.117Z,18.55
2023-05-05T19:07:34.948Z,9.10
2023-05-05T19:12:39.264Z,13.88
2023-05-05T19:17:44.160Z,12.30
2023-05-05T19:22:48.086Z,9.98
2023-05-05T19:27:51.602Z,9.55
2023-05-05T19:32:57.167Z,12.13
2023-05-05T19:38:00.706Z,10.45
2023-05-05T19:43:04.274Z,9.73
2023-05-05T19:48:09.166Z,10.38
2023-05-05T19:53:12.679Z,11.40
2023-05-05T19:58:17.220Z,8.38
2023-05-05T20:03:22.747Z,8.25
2023-05-05T20:08:26.274Z,13.90
2023-05-05T20:13:29.785Z,8.57
2023-05-05T20:18:34.938Z,16.23
2023-05-05T20:23:38.568Z,9.02
2023-05-05T20:28:45.374Z,9.98
2023-05-05T20:33:50.847Z,8.45
2023-05-05T20:38:54.365Z,13.82
2023-05-05T20:43:57.953Z,10.13
2023-05-05T20:49:02.975Z,11.63
2023-05-05T20:54:06.880Z,13.75
2023-05-05T20:59:10.348Z,10.88
2023-05-05T21:04:15.206Z,9.82
2023-05-05T21:09:20.101Z,9.18
2023-05-05T21:14:23.822Z,13.32
2023-05-05T21:19:29.072Z,8.57
2023-05-05T21:24:32.507Z,9.85
2023-05-05T21:29:37.827Z,9.93
2023-05-05T21:34:42.737Z,7.78
2023-05-05T21:39:46.503Z,13.32
2023-05-05T21:44:50.650Z,8.82
2023-05-05T21:49:55.462Z,10.48
2023-05-05T21:54:58.881Z,9.13
2023-05-05T22:00:02.322Z,11.32
2023-05-05T22:05:08.359Z,6.53
2023-05-05T22:10:12.442Z,10.02
2023-05-05T22:15:19.291Z,11.82
2023-05-05T22:20:24.228Z,9.73
2023-05-05T22:25:27.836Z,9.60
